Share

Spencer, WI

Marshfield Municipal (KMFI) Elev 1276 ft | 44.64 °N, 90.19 °W | Change Station
Active Advisory: Special Statement

Current weather conditions updated 27 minutes ago

Fog
Fog
51 °F
Feels Like 51 °F
N
4
Wind Variable Wind from ESE
Sunrise 6:06 AM
Sunset 7:53 PM
Moon Waning Gibbous

Today is forecast to be Warmer than yesterday. Showers and thunderstorms.

Pressure 29.92 in
Visibility 0.2 miles
Clouds Mostly Cloudy 300 ft
Overcast 7000 ft
Dew Point 49 °F
Humidity 92%
Rainfall 0.00 in
Snow Depth Not available.
UV 0 out of 16
Pollen 6.90 out of 12
Air Quality Not available.
Flu Activity Sporadic
SPECI KMFI 211013Z AUTO 11003KT 1/4SM FG BKN003 OVC070 11/09 A2992 RMK AO2 T01060094

More Conditions Fewer Conditions

Pressure 29.92 in
Visibility 0.2 miles
Clouds Mostly Cloudy 300 ft
Overcast 7000 ft
Dew Point 49 °F
Humidity 92%
Rainfall 0.00 in
Snow Depth Not available.
UV 0 out of 16
Pollen 6.90 out of 12
Air Quality Not available.
Flu Activity Sporadic
SPECI KMFI 211013Z AUTO 11003KT 1/4SM FG BKN003 OVC070 11/09 A2992 RMK AO2 T01060094

More Conditions Fewer Conditions

10-Day Weather Forecast

Almanac

Astronomy

Apr. 21, 2014 Rise Set
Actual Time 6:06 AM CDT 7:53 PM CDT
Civil Twilight 5:35 AM CDT 8:25 PM CDT
Nautical Twilight 4:57 AM CDT 9:03 PM CDT
Astronomical Twilight 4:16 AM CDT 9:44 PM CDT
Moon 1:27 AM CDT 11:30 AM CDT
Length of Visible Light 14h 49m
Length of Day
13h 47m
Tomorrow will be 2m 54s longer.
Waning Gibbous, 60% of the Moon is Illuminated
Today
Waning Gibbous
Apr 22
Last Quarter
Apr 29
New
May 6
First Quarter
May 14
Full

Today's Extremes

State Highs State Lows

Community

  • Snowy Robin
    Snowy Robin
  • Sun Pillar and Geese
    Sun Pillar and Geese
  • Showers on the Way
    Showers on the Way
  • Easter Morning Fog
    Easter Morning Fog
  • Easter Dance
    Easter Dance

WunderPhotos

Upload Photos

1,703,587 photos uploaded!

WunderBlogs® & News

Nearby

Snow Depth

Station Depth Elevation
No new snow has been reported.

Coastal Water Temperatures

Place Temperature
No Stations Reporting

Earthquake Activity

City Distance Mag. Time & Date
No recent earthquake activity has been reported nearby.
Minimum magnitude displayed is 2.5.

Nearby Weather Stations

Station Location Temp. Dew Point Humidity Wind Precip. Elev Updated Type
WIDOT Abbotsford - STH 29 3 mi E of Abbo, Abbotsford, WI 50 °F 49 °F 97% ENE  at  0 mph 0.00 in / hr 1400 ft 4:52 AM CDT MADIS
RAWS Mead WI, Blenker, WI 51 °F 51 °F 100% North  at  0 mph 0.00 in / hr 1149 ft 4:05 AM CDT MADIS

Show More Stations Show Fewer Stations

What do you think?

We're not finished. Please let us know what you like, what you don't like, and what you are still missing.